Time;durP1;ratioP1;P1;durP2;ratioP2;P2;SDS_P1;SDS_P2;PMS_P1;PMS_P2;Temp;Humidity;BMP_temperature;BMP_pressure;BME280_temperature;BME280_humidity;BME280_pressure;Samples;Min_cycle;Max_cycle;Signal;HPM_P1;HPM_P2
2023/10/20 00:02:27;;;;;;;118.90;56.20;;;;;;;7.63;100.00;98302.13;129622;1257;114721;-62
2023/10/20 00:05:30;;;;;;;125.50;57.20;;;;;;;7.68;100.00;98298.96;129564;1278;128446;-62
2023/10/20 00:08:32;;;;;;;123.90;57.50;;;;;;;7.72;100.00;98292.29;129849;1259;114682;-58
2023/10/20 00:11:36;;;;;;;127.30;57.20;;;;;;;7.73;100.00;98294.89;129913;1259;114949;-58
2023/10/20 00:14:38;;;;;;;126.60;58.80;;;;;;;7.74;100.00;98295.67;129823;1260;114650;-59
2023/10/20 00:17:41;;;;;;;121.70;55.80;;;;;;;7.73;100.00;98293.76;129775;1259;114836;-60
2023/10/20 00:20:43;;;;;;;141.40;59.80;;;;;;;7.73;100.00;98288.80;129808;1278;114762;-58
2023/10/20 00:23:45;;;;;;;124.30;55.00;;;;;;;7.74;100.00;98280.23;129866;1270;114721;-59
2023/10/20 00:26:47;;;;;;;128.10;57.60;;;;;;;7.75;100.00;98271.27;129637;1274;128275;-58
2023/10/20 00:29:50;;;;;;;118.60;56.30;;;;;;;7.74;100.00;98267.06;129782;1278;114727;-59
2023/10/20 00:32:52;;;;;;;127.40;58.40;;;;;;;7.75;100.00;98254.36;129923;1259;114684;-58
2023/10/20 00:35:54;;;;;;;126.80;59.30;;;;;;;7.75;100.00;98246.17;129520;1275;114832;-58
2023/10/20 00:38:57;;;;;;;126.10;58.00;;;;;;;7.77;100.00;98242.56;129872;1278;114641;-59
2023/10/20 00:41:59;;;;;;;111.20;52.30;;;;;;;7.78;100.00;98234.98;129849;1278;114791;-59
2023/10/20 00:45:02;;;;;;;125.60;60.10;;;;;;;7.77;100.00;98228.50;129813;1274;114807;-59
2023/10/20 00:48:06;;;;;;;128.20;57.80;;;;;;;7.77;100.00;98220.16;129619;1272;128835;-65
2023/10/20 00:51:08;;;;;;;120.30;56.30;;;;;;;7.78;100.00;98226.65;129627;1259;115218;-62
2023/10/20 00:54:13;;;;;;;126.00;58.30;;;;;;;7.77;100.00;98231.88;129753;1260;114703;-62
2023/10/20 00:57:16;;;;;;;131.10;59.60;;;;;;;7.79;100.00;98240.07;129392;1267;114887;-63
2023/10/20 01:00:20;;;;;;;125.90;56.30;;;;;;;7.80;100.00;98241.75;132030;1259;114683;-62
2023/10/20 01:03:22;;;;;;;135.10;61.10;;;;;;;7.82;100.00;98252.85;131111;1259;128429;-58
2023/10/20 01:06:26;;;;;;;126.60;59.50;;;;;;;7.82;100.00;98266.13;134522;1256;112647;-58
2023/10/20 01:09:28;;;;;;;129.00;57.70;;;;;;;7.83;100.00;98271.39;134524;1256;112719;-62
2023/10/20 01:12:29;;;;;;;122.40;57.20;;;;;;;7.86;100.00;98261.98;134580;1256;112494;-58
2023/10/20 01:15:32;;;;;;;132.70;61.20;;;;;;;7.87;100.00;98251.20;134261;1255;112620;-58
2023/10/20 01:18:34;;;;;;;122.80;57.40;;;;;;;7.88;100.00;98239.59;130185;1263;114807;-57
2023/10/20 01:21:36;;;;;;;127.70;58.10;;;;;;;7.89;100.00;98223.89;129749;1260;114772;-58
2023/10/20 01:24:38;;;;;;;122.50;58.20;;;;;;;7.88;100.00;98210.98;129991;1270;114801;-58
2023/10/20 01:27:41;;;;;;;122.10;55.40;;;;;;;7.86;100.00;98206.30;129690;1264;115192;-59
2023/10/20 01:30:45;;;;;;;124.90;60.00;;;;;;;7.88;100.00;98210.63;129669;1263;114921;-58
2023/10/20 01:33:49;;;;;;;119.10;55.60;;;;;;;7.89;100.00;98219.79;129912;1268;115300;-58
2023/10/20 01:36:52;;;;;;;123.90;54.00;;;;;;;7.89;100.00;98220.90;129902;1260;114703;-58
2023/10/20 01:39:55;;;;;;;125.50;55.50;;;;;;;7.89;100.00;98221.23;129846;1270;114717;-58
2023/10/20 01:42:57;;;;;;;103.70;50.60;;;;;;;7.87;100.00;98223.98;129883;1278;114864;-58
2023/10/20 01:46:03;;;;;;;107.70;49.90;;;;;;;7.85;100.00;98222.91;129846;1269;115247;-60
2023/10/20 01:49:05;;;;;;;105.10;51.90;;;;;;;7.83;100.00;98221.65;129849;1269;114786;-57
2023/10/20 01:52:07;;;;;;;100.90;48.60;;;;;;;7.83;100.00;98224.36;129858;1260;114745;-58
2023/10/20 01:55:09;;;;;;;91.40;45.90;;;;;;;7.80;100.00;98216.21;129960;1257;115176;-60
2023/10/20 01:58:11;;;;;;;99.70;49.40;;;;;;;7.76;100.00;98211.34;129631;1271;114798;-63
2023/10/20 02:01:14;;;;;;;103.10;49.20;;;;;;;7.73;100.00;98212.92;129770;1267;114690;-58
2023/10/20 02:04:16;;;;;;;102.10;47.90;;;;;;;7.72;100.00;98214.42;129892;1260;114633;-60
2023/10/20 02:07:18;;;;;;;98.50;47.00;;;;;;;7.72;100.00;98207.85;129618;1265;115773;-59
2023/10/20 02:10:20;;;;;;;113.00;52.80;;;;;;;7.69;100.00;98198.64;129868;1269;114758;-62
2023/10/20 02:13:23;;;;;;;110.40;51.00;;;;;;;7.67;100.00;98186.77;129855;1261;114731;-60
2023/10/20 02:16:26;;;;;;;106.50;49.90;;;;;;;7.65;100.00;98180.81;129903;1260;114763;-59
2023/10/20 02:19:28;;;;;;;103.30;48.80;;;;;;;7.64;100.00;98177.02;129839;1269;114773;-60
2023/10/20 02:22:31;;;;;;;98.70;48.20;;;;;;;7.65;100.00;98174.29;129845;1261;114779;-59
2023/10/20 02:25:33;;;;;;;96.70;47.00;;;;;;;7.63;100.00;98175.81;129815;1278;114715;-59
2023/10/20 02:28:37;;;;;;;97.00;46.70;;;;;;;7.63;100.00;98171.90;129872;1260;115150;-58
2023/10/20 02:31:40;;;;;;;99.10;47.70;;;;;;;7.63;100.00;98167.46;129935;1259;114818;-58
2023/10/20 02:34:42;;;;;;;95.00;45.40;;;;;;;7.63;100.00;98161.63;129907;1267;114845;-58
2023/10/20 02:37:44;;;;;;;95.20;46.50;;;;;;;7.62;100.00;98155.61;129773;1260;114793;-58
2023/10/20 02:40:50;;;;;;;94.40;46.90;;;;;;;7.61;100.00;98150.36;129832;1261;114785;-59
2023/10/20 02:43:53;;;;;;;93.40;45.10;;;;;;;7.62;100.00;98145.53;129454;1278;115183;-58
2023/10/20 02:46:55;;;;;;;97.20;48.40;;;;;;;7.60;100.00;98142.99;129868;1263;115318;-58
2023/10/20 02:49:57;;;;;;;98.40;47.60;;;;;;;7.62;100.00;98150.85;129864;1269;115117;-59
2023/10/20 02:52:59;;;;;;;90.70;43.40;;;;;;;7.64;100.00;98154.59;129584;1263;114771;-58
2023/10/20 02:56:02;;;;;;;96.70;47.90;;;;;;;7.66;100.00;98160.32;129911;1271;114882;-59
2023/10/20 02:59:04;;;;;;;92.00;47.30;;;;;;;7.67;100.00;98170.36;129655;1264;114712;-58
2023/10/20 03:02:06;;;;;;;93.40;47.70;;;;;;;7.69;100.00;98164.73;129951;1268;114708;-58
2023/10/20 03:05:09;;;;;;;91.60;45.40;;;;;;;7.70;100.00;98166.77;129728;1278;115360;-59
2023/10/20 03:08:11;;;;;;;86.30;45.30;;;;;;;7.71;100.00;98167.59;129870;1269;114741;-58
2023/10/20 03:11:13;;;;;;;95.40;47.30;;;;;;;7.72;100.00;98166.31;129877;1263;114712;-58
2023/10/20 03:14:17;;;;;;;90.80;44.60;;;;;;;7.73;100.00;98161.44;129838;1257;114723;-58
2023/10/20 03:17:19;;;;;;;92.20;46.30;;;;;;;7.73;100.00;98151.63;129869;1278;114759;-58
2023/10/20 03:20:28;;;;;;;87.50;44.90;;;;;;;7.75;100.00;98153.08;129826;1269;114652;-59
2023/10/20 03:23:30;;;;;;;94.30;44.90;;;;;;;7.75;100.00;98139.27;129647;1264;115308;-63
2023/10/20 03:26:32;;;;;;;91.50;44.90;;;;;;;7.73;100.00;98124.44;129960;1258;114779;-61
2023/10/20 03:29:36;;;;;;;95.70;46.30;;;;;;;7.71;100.00;98119.42;127659;1268;3100408;-59
2023/10/20 03:32:38;;;;;;;82.40;42.00;;;;;;;7.71;100.00;98117.81;129859;1260;114825;-62
2023/10/20 03:35:40;;;;;;;88.50;45.50;;;;;;;7.69;100.00;98122.41;129919;1267;114709;-62
2023/10/20 03:38:42;;;;;;;88.60;44.40;;;;;;;7.68;100.00;98138.86;129900;1269;114888;-64
2023/10/20 03:41:45;;;;;;;85.10;43.60;;;;;;;7.67;100.00;98151.70;129814;1278;114821;-60
2023/10/20 03:44:48;;;;;;;84.00;42.20;;;;;;;7.69;100.00;98155.15;129618;1265;115284;-59
2023/10/20 03:47:50;;;;;;;119.90;42.80;;;;;;;7.69;100.00;98149.98;129943;1259;114711;-59
2023/10/20 03:50:53;;;;;;;76.10;41.00;;;;;;;7.71;100.00;98152.70;129898;1259;114706;-63
2023/10/20 03:53:56;;;;;;;83.10;41.80;;;;;;;7.72;100.00;98156.19;129915;1270;114753;-61
2023/10/20 03:56:58;;;;;;;75.30;39.90;;;;;;;7.71;100.00;98158.55;129815;1263;114728;-62
2023/10/20 04:00:15;;;;;;;80.10;42.00;;;;;;;7.71;100.00;98159.08;129918;1261;114782;-59
2023/10/20 04:03:17;;;;;;;83.00;43.70;;;;;;;7.72;100.00;98151.02;129901;1260;115217;-58
2023/10/20 04:06:20;;;;;;;73.90;41.80;;;;;;;7.72;100.00;98140.30;129973;1259;114718;-58
2023/10/20 04:09:22;;;;;;;81.80;42.40;;;;;;;7.73;100.00;98136.34;129991;1260;114828;-61
2023/10/20 04:12:27;;;;;;;82.90;43.90;;;;;;;7.74;100.00;98137.55;129957;1278;114738;-60
2023/10/20 04:15:32;;;;;;;80.10;42.10;;;;;;;7.76;100.00;98140.77;129770;1263;114796;-58
2023/10/20 04:18:34;;;;;;;83.70;44.30;;;;;;;7.78;100.00;98135.52;129910;1264;115281;-60
2023/10/20 04:21:40;;;;;;;84.90;43.30;;;;;;;7.79;100.00;98138.81;130034;1260;114830;-60
2023/10/20 04:24:44;;;;;;;80.30;43.70;;;;;;;7.80;100.00;98145.84;129575;1264;115160;-59
2023/10/20 04:28:41;;;;;;;84.00;44.30;;;;;;;7.81;100.00;98143.79;129866;1261;114708;-61
2023/10/20 04:45:41;;;;;;;82.70;44.20;;;;;;;7.83;100.00;98119.66;129597;1264;114811;-62
2023/10/20 04:52:17;;;;;;;80.20;41.70;;;;;;;7.84;100.00;98133.77;129696;1261;115178;-61
2023/10/20 04:58:14;;;;;;;86.80;45.70;;;;;;;7.82;100.00;98128.95;129671;1262;114784;-60
2023/10/20 05:02:09;;;;;;;79.80;43.60;;;;;;;7.82;100.00;98116.89;129630;1267;114882;-64
2023/10/20 05:04:40;;;;;;;83.60;44.00;;;;;;;7.83;100.00;98118.41;129722;1260;128772;-61
2023/10/20 05:07:50;;;;;;;80.50;42.60;;;;;;;7.86;100.00;98115.85;129979;1260;114682;-58
2023/10/20 05:10:54;;;;;;;87.80;44.50;;;;;;;7.87;100.00;98115.06;129677;1261;114771;-59
2023/10/20 05:13:56;;;;;;;86.30;45.00;;;;;;;7.87;100.00;98110.63;129949;1260;115370;-59
2023/10/20 05:16:58;;;;;;;86.40;45.10;;;;;;;7.87;100.00;98108.89;129843;1278;114714;-58
2023/10/20 05:20:00;;;;;;;81.70;42.90;;;;;;;7.87;100.00;98110.30;129974;1278;114830;-60
2023/10/20 05:23:03;;;;;;;82.90;44.10;;;;;;;7.86;100.00;98102.91;129910;1261;114709;-61
2023/10/20 05:26:05;;;;;;;74.50;40.40;;;;;;;7.85;100.00;98095.19;129859;1259;115168;-58
2023/10/20 05:29:08;;;;;;;86.20;43.20;;;;;;;7.84;100.00;98093.48;129694;1278;114705;-61
2023/10/20 05:32:10;;;;;;;80.60;43.00;;;;;;;7.83;100.00;98097.59;129780;1260;114815;-62
2023/10/20 05:35:13;;;;;;;80.00;41.10;;;;;;;7.83;100.00;98099.90;130011;1270;114772;-59
2023/10/20 05:38:15;;;;;;;79.00;41.00;;;;;;;7.82;100.00;98095.77;129564;1261;114843;-62
2023/10/20 05:41:18;;;;;;;83.80;42.90;;;;;;;7.80;100.00;98102.30;130042;1260;114779;-59
2023/10/20 05:44:23;;;;;;;84.00;40.40;;;;;;;7.78;100.00;98098.17;129867;1260;114814;-59
2023/10/20 05:47:25;;;;;;;;;;;;;;;7.77;100.00;98097.00;130003;1270;115054;-59
2023/10/20 05:50:27;;;;;;;73.70;37.50;;;;;;;7.73;100.00;98090.48;129987;1273;116362;-61
2023/10/20 05:53:29;;;;;;;81.70;40.30;;;;;;;7.75;100.00;98092.48;129800;1260;114773;-62
2023/10/20 05:56:31;;;;;;;80.30;40.20;;;;;;;7.77;100.00;98095.08;129528;1264;114812;-58
2023/10/20 05:59:33;;;;;;;82.10;40.80;;;;;;;7.78;100.00;98088.38;129716;1258;114783;-60
2023/10/20 06:02:35;;;;;;;78.20;38.90;;;;;;;7.79;100.00;98084.95;129874;1270;115589;-59
2023/10/20 06:05:38;;;;;;;83.80;40.70;;;;;;;7.79;100.00;98085.81;129795;1260;115506;-60
2023/10/20 06:08:40;;;;;;;77.00;38.00;;;;;;;7.81;100.00;98080.88;129804;1257;114727;-60
2023/10/20 06:11:43;;;;;;;74.20;38.60;;;;;;;7.80;100.00;98083.95;129632;1264;114725;-59
2023/10/20 06:14:46;;;;;;;71.50;36.60;;;;;;;7.81;100.00;98085.15;129869;1278;114793;-60
2023/10/20 06:17:49;;;;;;;74.90;37.60;;;;;;;7.81;100.00;98082.67;130021;1260;115302;-59
2023/10/20 06:20:51;;;;;;;78.40;36.70;;;;;;;7.82;100.00;98078.66;129842;1260;127985;-61
2023/10/20 06:23:54;;;;;;;77.00;38.70;;;;;;;7.84;100.00;98078.52;129939;1270;114728;-58
2023/10/20 06:27:02;;;;;;;87.60;43.90;;;;;;;7.87;100.00;98080.28;129870;1259;114708;-64
2023/10/20 06:30:06;;;;;;;81.40;39.50;;;;;;;7.90;100.00;98076.13;129496;1278;114843;-59
2023/10/20 06:36:18;;;;;;;;;;;;;;;7.96;100.00;98062.67;129882;1273;114841;-60
2023/10/20 06:39:20;;;;;;;72.40;36.10;;;;;;;8.00;100.00;98066.81;129627;1263;127896;-60
2023/10/20 06:42:24;;;;;;;71.80;38.50;;;;;;;8.04;100.00;98067.81;129903;1257;114740;-59
2023/10/20 06:45:26;;;;;;;74.40;38.60;;;;;;;8.09;100.00;98059.31;129917;1255;114841;-59
2023/10/20 06:48:28;;;;;;;80.40;37.80;;;;;;;8.12;100.00;98056.52;129824;1278;114738;-59
2023/10/20 06:51:31;;;;;;;77.60;37.80;;;;;;;8.15;100.00;98052.73;130016;1257;114711;-61
2023/10/20 06:54:33;;;;;;;71.70;36.00;;;;;;;8.20;100.00;98043.49;129537;1270;114997;-60
2023/10/20 06:57:35;;;;;;;68.00;35.20;;;;;;;8.24;100.00;98051.18;129840;1259;114793;-64
2023/10/20 07:00:37;;;;;;;75.00;36.00;;;;;;;8.25;100.00;98045.94;130013;1272;116267;-58
2023/10/20 07:03:40;;;;;;;72.30;37.50;;;;;;;8.27;100.00;98038.36;129921;1256;115214;-61
2023/10/20 07:06:43;;;;;;;72.90;34.60;;;;;;;8.31;100.00;98029.70;129990;1260;114712;-61
2023/10/20 07:09:46;;;;;;;70.80;37.10;;;;;;;8.34;100.00;98029.59;129831;1278;114735;-60
2023/10/20 07:12:48;;;;;;;69.70;35.20;;;;;;;8.42;100.00;98018.02;130000;1278;114820;-63
2023/10/20 07:15:56;;;;;;;69.70;34.30;;;;;;;8.48;100.00;98013.65;130049;1257;115506;-60
2023/10/20 07:19:00;;;;;;;66.30;34.10;;;;;;;8.54;100.00;98004.80;130015;1263;128870;-61
2023/10/20 07:22:02;;;;;;;70.90;35.50;;;;;;;8.59;100.00;98001.61;129866;1270;115158;-60
2023/10/20 07:25:05;;;;;;;69.30;35.20;;;;;;;8.65;100.00;97997.56;129913;1257;114724;-59
2023/10/20 07:28:07;;;;;;;75.40;37.70;;;;;;;8.77;100.00;97996.10;129923;1262;115177;-60
2023/10/20 07:31:17;;;;;;;71.80;36.80;;;;;;;8.84;100.00;97997.29;129953;1274;114779;-61
2023/10/20 07:34:20;;;;;;;74.80;39.40;;;;;;;8.89;100.00;97994.39;129910;1257;114746;-61
2023/10/20 07:37:22;;;;;;;74.70;39.90;;;;;;;8.91;100.00;97988.06;129973;1260;114782;-60
2023/10/20 07:40:26;;;;;;;79.30;38.60;;;;;;;8.92;100.00;97989.01;129783;1261;114847;-58
2023/10/20 07:43:28;;;;;;;79.70;39.80;;;;;;;8.95;100.00;97986.48;129974;1259;115104;-59
2023/10/20 07:46:31;;;;;;;81.80;39.20;;;;;;;8.99;100.00;97982.98;129950;1259;114777;-62
2023/10/20 07:49:33;;;;;;;79.60;38.30;;;;;;;9.03;100.00;97982.32;130059;1261;114802;-60
2023/10/20 07:52:35;;;;;;;82.90;40.90;;;;;;;9.03;100.00;97982.46;129991;1278;115183;-58
2023/10/20 07:55:37;;;;;;;78.40;38.50;;;;;;;9.05;100.00;97988.89;129911;1261;115225;-58
2023/10/20 07:58:39;;;;;;;80.10;39.10;;;;;;;9.07;100.00;97983.91;130099;1261;114700;-59
2023/10/20 08:01:42;;;;;;;85.50;43.20;;;;;;;9.09;100.00;97978.20;129958;1259;115218;-61
2023/10/20 08:04:45;;;;;;;73.60;37.70;;;;;;;9.12;100.00;97967.28;129858;1256;114700;-61
2023/10/20 08:07:49;;;;;;;79.80;40.90;;;;;;;9.13;100.00;97959.36;129690;1257;114868;-63
2023/10/20 08:10:51;;;;;;;85.40;43.30;;;;;;;9.14;100.00;97955.02;129899;1260;114964;-59
2023/10/20 08:13:53;;;;;;;81.30;39.70;;;;;;;9.16;100.00;97952.73;129898;1259;116362;-59
2023/10/20 08:17:03;;;;;;;75.60;39.30;;;;;;;9.16;100.00;97945.95;129500;1265;127954;-59
2023/10/20 08:20:09;;;;;;;76.30;38.00;;;;;;;9.17;100.00;97948.22;129688;1264;115250;-60
2023/10/20 08:23:11;;;;;;;81.80;40.10;;;;;;;9.17;100.00;97943.41;129544;1263;114792;-59
2023/10/20 08:26:15;;;;;;;83.00;42.10;;;;;;;9.19;100.00;97929.88;129653;1260;115312;-63
2023/10/20 08:29:18;;;;;;;85.10;41.50;;;;;;;9.21;100.00;97932.00;129671;1261;114697;-58
2023/10/20 08:32:20;;;;;;;79.80;39.90;;;;;;;9.24;100.00;97927.30;129696;1279;114733;-59
2023/10/20 08:35:23;;;;;;;78.50;38.80;;;;;;;9.26;100.00;97926.28;129460;1258;114839;-61
2023/10/20 08:38:26;;;;;;;84.10;41.60;;;;;;;9.28;100.00;97931.11;129802;1260;114709;-58
2023/10/20 08:41:28;;;;;;;80.30;39.80;;;;;;;9.29;100.00;97923.69;129667;1257;114827;-57
2023/10/20 08:44:31;;;;;;;87.00;40.30;;;;;;;9.32;100.00;97908.55;129693;1260;114708;-58
2023/10/20 08:47:33;;;;;;;87.70;41.90;;;;;;;9.33;100.00;97904.52;129661;1278;114917;-67
2023/10/20 08:50:41;;;;;;;91.10;43.50;;;;;;;9.37;100.00;97899.52;129934;1259;114702;-59
2023/10/20 08:53:47;;;;;;;93.20;43.10;;;;;;;9.40;100.00;97892.34;129724;1270;115247;-59
2023/10/20 08:56:50;;;;;;;89.40;42.50;;;;;;;9.43;100.00;97885.65;129949;1259;114745;-58
2023/10/20 08:59:52;;;;;;;79.90;40.80;;;;;;;9.45;100.00;97879.65;130093;1262;115267;-59
2023/10/20 09:02:59;;;;;;;89.30;43.10;;;;;;;9.45;100.00;97879.80;129932;1270;114730;-59
2023/10/20 09:06:06;;;;;;;93.50;43.40;;;;;;;9.46;100.00;97878.65;129671;1255;114831;-60
2023/10/20 09:09:10;;;;;;;93.10;43.80;;;;;;;9.48;100.00;97873.34;129954;1259;128740;-60
2023/10/20 09:12:13;;;;;;;89.20;43.70;;;;;;;9.51;100.00;97869.02;129656;1261;114706;-61
2023/10/20 09:15:18;;;;;;;94.60;44.60;;;;;;;9.52;100.00;97860.91;129429;1267;114803;-59
2023/10/20 09:18:22;;;;;;;86.10;41.30;;;;;;;9.51;100.00;97850.95;129796;1278;115247;-61
2023/10/20 09:21:26;;;;;;;82.00;42.00;;;;;;;9.51;100.00;97855.29;129938;1259;115221;-60
2023/10/20 09:24:31;;;;;;;92.40;44.80;;;;;;;9.49;100.00;97847.06;129904;1278;129278;-61
2023/10/20 09:27:34;;;;;;;79.30;37.60;;;;;;;9.51;100.00;97839.23;130013;1261;115186;-61
2023/10/20 09:30:37;;;;;;;86.70;41.50;;;;;;;9.51;100.00;97836.94;129915;1259;114779;-63
2023/10/20 09:33:39;;;;;;;90.40;40.80;;;;;;;9.52;100.00;97830.73;129932;1259;114724;-63
2023/10/20 09:36:47;;;;;;;77.60;39.30;;;;;;;9.57;100.00;97826.09;129928;1278;114811;-63
2023/10/20 09:39:54;;;;;;;82.70;41.60;;;;;;;9.61;100.00;97832.73;129907;1278;128872;-60
2023/10/20 09:42:57;;;;;;;81.40;40.50;;;;;;;9.63;100.00;97838.55;129858;1263;114724;-62
2023/10/20 09:46:10;;;;;;;89.50;41.70;;;;;;;9.63;100.00;97838.02;129898;1270;114767;-63
2023/10/20 09:49:27;;;;;;;92.80;44.80;;;;;;;9.65;100.00;97836.95;129541;1264;114819;-61
2023/10/20 09:52:30;;;;;;;84.70;43.50;;;;;;;9.69;100.00;97849.63;129516;1264;115436;-64
2023/10/20 09:55:32;;;;;;;94.40;46.10;;;;;;;9.72;100.00;97854.41;129706;1261;114763;-56
2023/10/20 09:58:36;;;;;;;79.10;41.10;;;;;;;9.77;100.00;97847.60;129892;1259;114965;-65
2023/10/20 10:01:42;;;;;;;90.40;44.70;;;;;;;9.81;100.00;97838.30;129771;1278;114741;-62
2023/10/20 10:04:47;;;;;;;84.30;42.60;;;;;;;9.84;100.00;97831.62;129722;1260;114748;-60
2023/10/20 10:08:08;;;;;;;88.20;45.90;;;;;;;9.89;100.00;97825.63;129837;1259;114723;-60
2023/10/20 10:11:27;;;;;;;80.80;41.60;;;;;;;9.95;100.00;97811.95;129830;1278;129064;-60
2023/10/20 10:14:29;;;;;;;81.20;45.20;;;;;;;9.97;100.00;97803.55;129554;1259;116440;-63
2023/10/20 10:17:44;;;;;;;84.90;44.60;;;;;;;9.99;100.00;97798.38;129907;1261;115173;-63
2023/10/20 10:20:48;;;;;;;87.90;45.70;;;;;;;10.06;100.00;97792.27;129945;1259;115265;-62
2023/10/20 10:24:12;;;;;;;86.90;44.50;;;;;;;10.11;100.00;97793.58;129893;1257;114751;-58
2023/10/20 10:27:16;;;;;;;77.80;39.80;;;;;;;10.16;100.00;97790.64;129595;1255;127882;-60
2023/10/20 10:30:27;;;;;;;88.90;43.90;;;;;;;10.21;100.00;97791.88;129382;1273;116577;-64
2023/10/20 10:33:29;;;;;;;89.40;46.30;;;;;;;10.24;100.00;97794.81;129876;1259;114749;-64
2023/10/20 10:36:47;;;;;;;83.10;45.60;;;;;;;10.27;100.00;97790.23;129906;1259;114794;-65
2023/10/20 10:39:49;;;;;;;83.60;41.30;;;;;;;10.32;100.00;97788.86;130163;1257;114744;-66
2023/10/20 10:42:52;;;;;;;74.20;40.90;;;;;;;10.39;100.00;97785.34;129749;1257;114713;-65
2023/10/20 10:45:54;;;;;;;79.00;42.40;;;;;;;10.44;100.00;97785.51;129580;1262;114764;-65
2023/10/20 10:49:09;;;;;;;79.80;43.80;;;;;;;10.51;100.00;97786.20;130016;1272;114850;-65
2023/10/20 10:52:11;;;;;;;78.40;40.90;;;;;;;10.55;100.00;97794.20;129464;1257;114792;-66
2023/10/20 10:55:14;;;;;;;80.80;44.90;;;;;;;10.57;100.00;97804.89;129862;1255;114717;-67
2023/10/20 10:58:17;;;;;;;80.40;45.10;;;;;;;10.59;100.00;97802.62;129891;1260;114695;-65
2023/10/20 11:01:19;;;;;;;82.40;44.10;;;;;;;10.63;100.00;97798.34;129888;1272;114708;-64
2023/10/20 11:04:21;;;;;;;92.00;47.50;;;;;;;10.66;100.00;97796.65;129767;1259;128838;-64
2023/10/20 11:07:24;;;;;;;78.20;42.60;;;;;;;10.67;100.00;97792.25;129668;1262;114766;-64
2023/10/20 11:10:28;;;;;;;88.10;44.90;;;;;;;10.67;100.00;97778.47;129904;1256;114646;-66
2023/10/20 11:13:32;;;;;;;89.50;49.30;;;;;;;10.71;100.00;97774.92;129950;1259;114687;-64
2023/10/20 11:16:36;;;;;;;85.60;43.00;;;;;;;10.74;100.00;97761.85;129812;1272;114748;-65
2023/10/20 11:19:38;;;;;;;81.30;45.20;;;;;;;10.75;100.00;97754.96;129843;1275;114725;-64
2023/10/20 11:22:40;;;;;;;85.80;43.40;;;;;;;10.78;100.00;97739.63;129914;1257;114699;-64
2023/10/20 11:25:42;;;;;;;81.50;42.20;;;;;;;10.83;100.00;97739.10;129808;1259;114697;-64
2023/10/20 11:28:45;;;;;;;77.40;41.00;;;;;;;10.86;100.00;97735.97;129817;1259;116417;-62
2023/10/20 11:31:47;;;;;;;83.40;43.00;;;;;;;10.86;100.00;97729.14;129731;1259;114823;-63
2023/10/20 11:34:50;;;;;;;77.30;43.50;;;;;;;10.89;100.00;97724.58;129539;1259;114721;-60
2023/10/20 11:37:57;;;;;;;77.30;40.70;;;;;;;10.94;100.00;97725.88;129398;1262;114714;-61
2023/10/20 11:41:00;;;;;;;81.20;42.80;;;;;;;10.94;100.00;97724.59;129748;1259;114779;-62
2023/10/20 11:44:02;;;;;;;87.50;45.70;;;;;;;10.95;100.00;97726.17;129840;1269;114741;-62
2023/10/20 11:47:05;;;;;;;75.40;42.50;;;;;;;11.01;100.00;97724.93;129987;1257;115394;-62
2023/10/20 11:50:09;;;;;;;77.60;38.90;;;;;;;11.05;100.00;97727.21;129853;1256;114810;-63
2023/10/20 11:53:14;;;;;;;81.50;42.70;;;;;;;11.08;100.00;97725.66;129905;1259;114754;-60
2023/10/20 11:56:16;;;;;;;81.90;43.60;;;;;;;11.14;100.00;97718.37;129590;1262;115542;-58
2023/10/20 11:59:19;;;;;;;80.60;42.00;;;;;;;11.18;100.00;97711.02;129867;1259;114728;-60
2023/10/20 12:02:23;;;;;;;73.50;39.50;;;;;;;11.20;100.00;97700.78;129910;1275;115368;-59
2023/10/20 12:05:25;;;;;;;84.50;43.50;;;;;;;11.20;100.00;97700.21;129947;1259;114699;-62
2023/10/20 12:08:29;;;;;;;81.40;41.80;;;;;;;11.23;100.00;97699.11;129965;1256;114706;-61
2023/10/20 12:11:31;;;;;;;89.10;42.70;;;;;;;11.25;100.00;97696.00;129582;1275;114838;-63
2023/10/20 12:14:34;;;;;;;81.30;42.80;;;;;;;11.27;100.00;97699.94;129869;1257;114793;-59
2023/10/20 12:17:39;;;;;;;80.40;43.80;;;;;;;11.34;100.00;97697.56;129749;1262;115244;-63
2023/10/20 12:20:41;;;;;;;94.90;44.30;;;;;;;11.43;100.00;97706.33;129676;1264;116682;-60
2023/10/20 12:23:44;;;;;;;77.00;41.80;;;;;;;11.50;100.00;97710.34;129989;1259;114907;-60
2023/10/20 12:26:47;;;;;;;75.00;40.10;;;;;;;11.51;100.00;97715.52;129839;1256;115282;-60
2023/10/20 12:29:49;;;;;;;75.30;40.50;;;;;;;11.52;100.00;97722.48;129791;1271;115084;-61
2023/10/20 12:32:52;;;;;;;75.40;41.20;;;;;;;11.52;100.00;97718.89;129929;1260;115202;-60
2023/10/20 12:35:55;;;;;;;81.70;43.00;;;;;;;11.51;100.00;97703.27;129580;1256;128197;-60
2023/10/20 12:38:57;;;;;;;78.90;43.10;;;;;;;11.50;100.00;97700.77;129864;1256;114769;-60
2023/10/20 12:42:03;;;;;;;82.40;41.70;;;;;;;11.53;100.00;97702.48;129978;1259;114736;-58
2023/10/20 12:45:09;;;;;;;76.70;40.80;;;;;;;11.53;100.00;97702.29;129681;1265;114873;-60
2023/10/20 12:48:11;;;;;;;83.00;43.30;;;;;;;11.54;100.00;97706.54;129880;1257;115456;-58
2023/10/20 12:51:13;;;;;;;84.20;41.80;;;;;;;11.54;100.00;97707.83;129831;1259;114734;-63
2023/10/20 12:54:16;;;;;;;74.20;38.40;;;;;;;11.54;100.00;97705.95;129936;1260;114745;-63
2023/10/20 12:57:19;;;;;;;84.80;41.80;;;;;;;11.54;100.00;97700.11;129915;1257;114732;-62
2023/10/20 13:00:21;;;;;;;80.70;43.00;;;;;;;11.53;100.00;97697.65;129902;1272;114765;-61
2023/10/20 13:03:26;;;;;;;74.60;41.80;;;;;;;11.53;100.00;97685.18;129916;1259;114724;-59
2023/10/20 13:06:28;;;;;;;;;;;;;;;11.54;100.00;97679.03;129891;1257;115270;-59
2023/10/20 13:09:31;;;;;;;82.50;43.10;;;;;;;11.54;100.00;97665.40;129845;1272;114676;-59
2023/10/20 13:12:33;;;;;;;84.60;44.70;;;;;;;11.55;100.00;97661.55;129833;1278;114697;-62
2023/10/20 13:15:36;;;;;;;77.70;42.60;;;;;;;11.57;100.00;97641.39;129790;1261;114919;-58
2023/10/20 13:18:38;;;;;;;80.90;44.70;;;;;;;11.58;100.00;97624.70;129623;1264;115221;-59
2023/10/20 13:21:41;;;;;;;79.30;39.90;;;;;;;11.61;100.00;97618.33;129883;1270;114778;-64
2023/10/20 13:24:44;;;;;;;81.60;43.90;;;;;;;11.61;100.00;97618.48;129803;1270;114897;-64
2023/10/20 13:27:52;;;;;;;91.70;49.90;;;;;;;11.61;100.00;97623.67;129797;1261;114651;-64
2023/10/20 13:31:03;;;;;;;86.90;47.20;;;;;;;11.62;100.00;97631.07;129639;1262;115241;-64
2023/10/20 13:34:05;;;;;;;82.70;45.40;;;;;;;11.63;100.00;97630.11;129951;1259;114822;-65
2023/10/20 13:37:07;;;;;;;83.60;44.70;;;;;;;11.65;100.00;97633.23;129878;1257;114702;-60
2023/10/20 13:40:10;;;;;;;73.40;41.60;;;;;;;11.67;100.00;97640.55;129882;1259;114776;-63
2023/10/20 13:43:13;;;;;;;83.00;43.20;;;;;;;11.66;100.00;97647.67;129942;1278;114621;-65
2023/10/20 13:46:16;;;;;;;84.10;46.70;;;;;;;11.66;100.00;97646.43;129735;1278;128820;-65
2023/10/20 13:49:18;;;;;;;82.80;46.00;;;;;;;11.65;100.00;97641.86;129918;1259;114776;-64
2023/10/20 13:52:20;;;;;;;91.30;49.70;;;;;;;11.66;100.00;97640.16;129892;1259;116217;-59
2023/10/20 13:55:22;;;;;;;82.50;45.10;;;;;;;11.67;100.00;97642.52;129815;1256;114802;-63
2023/10/20 13:58:26;;;;;;;82.00;50.10;;;;;;;11.66;100.00;97641.05;129721;1259;114729;-59
2023/10/20 14:01:28;;;;;;;85.10;44.60;;;;;;;11.63;100.00;97649.35;129565;1270;114874;-59
2023/10/20 14:04:30;;;;;;;75.70;45.90;;;;;;;11.62;100.00;97651.45;129837;1278;114748;-59
2023/10/20 14:07:33;;;;;;;91.60;51.60;;;;;;;11.60;100.00;97641.83;129816;1258;115064;-59